sensor_id;sensor_type;location;lat;lon;timestamp;P1;durP1;ratioP1;P2;durP2;ratioP2
41946;SDS011;27638;42.184;24.848;2024-01-25T00:01:06;32.90;;;19.27;;
41946;SDS011;27638;42.184;24.848;2024-01-25T00:03:32;28.00;;;18.00;;
41946;SDS011;27638;42.184;24.848;2024-01-25T00:05:57;31.48;;;18.00;;
41946;SDS011;27638;42.184;24.848;2024-01-25T00:08:23;30.85;;;17.83;;
41946;SDS011;27638;42.184;24.848;2024-01-25T00:10:48;32.92;;;19.58;;
41946;SDS011;27638;42.184;24.848;2024-01-25T00:13:14;39.88;;;21.55;;
41946;SDS011;27638;42.184;24.848;2024-01-25T00:15:39;38.47;;;23.25;;
41946;SDS011;27638;42.184;24.848;2024-01-25T00:18:05;34.70;;;21.30;;
41946;SDS011;27638;42.184;24.848;2024-01-25T00:20:30;43.78;;;24.33;;
41946;SDS011;27638;42.184;24.848;2024-01-25T00:22:56;47.60;;;25.92;;
41946;SDS011;27638;42.184;24.848;2024-01-25T00:25:21;45.10;;;26.42;;
41946;SDS011;27638;42.184;24.848;2024-01-25T00:27:47;43.78;;;24.70;;
41946;SDS011;27638;42.184;24.848;2024-01-25T00:30:12;51.85;;;28.90;;
41946;SDS011;27638;42.184;24.848;2024-01-25T00:32:38;48.60;;;27.30;;
41946;SDS011;27638;42.184;24.848;2024-01-25T00:35:04;40.97;;;25.70;;
41946;SDS011;27638;42.184;24.848;2024-01-25T00:37:30;48.95;;;27.02;;
41946;SDS011;27638;42.184;24.848;2024-01-25T00:39:56;50.92;;;30.95;;
41946;SDS011;27638;42.184;24.848;2024-01-25T00:42:22;60.75;;;34.72;;
41946;SDS011;27638;42.184;24.848;2024-01-25T00:44:49;52.15;;;31.40;;
41946;SDS011;27638;42.184;24.848;2024-01-25T00:47:14;45.40;;;28.25;;
41946;SDS011;27638;42.184;24.848;2024-01-25T00:49:40;42.78;;;26.55;;
41946;SDS011;27638;42.184;24.848;2024-01-25T00:52:06;44.50;;;26.35;;
41946;SDS011;27638;42.184;24.848;2024-01-25T00:54:32;54.25;;;32.83;;
41946;SDS011;27638;42.184;24.848;2024-01-25T00:56:58;55.22;;;32.65;;
41946;SDS011;27638;42.184;24.848;2024-01-25T00:59:24;43.83;;;25.73;;
41946;SDS011;27638;42.184;24.848;2024-01-25T01:01:51;71.35;;;41.55;;
41946;SDS011;27638;42.184;24.848;2024-01-25T01:04:18;54.58;;;29.27;;
41946;SDS011;27638;42.184;24.848;2024-01-25T01:06:44;54.40;;;26.83;;
41946;SDS011;27638;42.184;24.848;2024-01-25T01:09:10;35.20;;;20.20;;
41946;SDS011;27638;42.184;24.848;2024-01-25T01:11:36;34.05;;;18.13;;
41946;SDS011;27638;42.184;24.848;2024-01-25T01:14:01;29.15;;;16.10;;
41946;SDS011;27638;42.184;24.848;2024-01-25T01:16:27;27.77;;;15.63;;
41946;SDS011;27638;42.184;24.848;2024-01-25T01:18:55;24.80;;;14.98;;
41946;SDS011;27638;42.184;24.848;2024-01-25T01:21:21;26.40;;;14.90;;
41946;SDS011;27638;42.184;24.848;2024-01-25T01:23:46;22.98;;;13.30;;
41946;SDS011;27638;42.184;24.848;2024-01-25T01:26:12;27.38;;;14.90;;
41946;SDS011;27638;42.184;24.848;2024-01-25T01:28:37;26.25;;;14.20;;
41946;SDS011;27638;42.184;24.848;2024-01-25T01:31:03;16.13;;;10.20;;
41946;SDS011;27638;42.184;24.848;2024-01-25T01:33:28;20.50;;;11.13;;
41946;SDS011;27638;42.184;24.848;2024-01-25T01:35:54;19.60;;;12.77;;
41946;SDS011;27638;42.184;24.848;2024-01-25T01:38:19;27.20;;;14.65;;
41946;SDS011;27638;42.184;24.848;2024-01-25T01:40:45;22.23;;;12.25;;
41946;SDS011;27638;42.184;24.848;2024-01-25T01:43:20;28.02;;;13.38;;
41946;SDS011;27638;42.184;24.848;2024-01-25T01:45:48;25.48;;;12.02;;
41946;SDS011;27638;42.184;24.848;2024-01-25T01:48:13;17.38;;;11.20;;
41946;SDS011;27638;42.184;24.848;2024-01-25T01:50:40;15.85;;;11.63;;
41946;SDS011;27638;42.184;24.848;2024-01-25T01:53:05;12.77;;;7.10;;
41946;SDS011;27638;42.184;24.848;2024-01-25T01:55:31;6.93;;;5.18;;
41946;SDS011;27638;42.184;24.848;2024-01-25T01:57:57;7.18;;;3.83;;
41946;SDS011;27638;42.184;24.848;2024-01-25T02:00:24;5.07;;;4.00;;
41946;SDS011;27638;42.184;24.848;2024-01-25T02:02:50;3.83;;;2.67;;
41946;SDS011;27638;42.184;24.848;2024-01-25T02:05:16;4.30;;;3.22;;
41946;SDS011;27638;42.184;24.848;2024-01-25T02:07:42;3.47;;;2.50;;
41946;SDS011;27638;42.184;24.848;2024-01-25T02:10:08;4.32;;;2.72;;
41946;SDS011;27638;42.184;24.848;2024-01-25T02:12:34;4.45;;;2.63;;
41946;SDS011;27638;42.184;24.848;2024-01-25T02:15:00;7.05;;;3.53;;
41946;SDS011;27638;42.184;24.848;2024-01-25T02:17:25;4.13;;;2.83;;
41946;SDS011;27638;42.184;24.848;2024-01-25T02:19:51;6.15;;;2.95;;
41946;SDS011;27638;42.184;24.848;2024-01-25T02:22:18;7.75;;;2.97;;
41946;SDS011;27638;42.184;24.848;2024-01-25T02:24:44;4.88;;;2.80;;
41946;SDS011;27638;42.184;24.848;2024-01-25T02:27:10;4.45;;;2.67;;
41946;SDS011;27638;42.184;24.848;2024-01-25T02:29:35;3.88;;;2.78;;
41946;SDS011;27638;42.184;24.848;2024-01-25T02:32:02;4.53;;;2.60;;
41946;SDS011;27638;42.184;24.848;2024-01-25T02:34:27;5.90;;;3.03;;
41946;SDS011;27638;42.184;24.848;2024-01-25T02:36:53;4.95;;;2.90;;
41946;SDS011;27638;42.184;24.848;2024-01-25T02:39:18;4.32;;;3.03;;
41946;SDS011;27638;42.184;24.848;2024-01-25T02:41:44;3.00;;;2.65;;
41946;SDS011;27638;42.184;24.848;2024-01-25T02:44:10;7.15;;;3.20;;
41946;SDS011;27638;42.184;24.848;2024-01-25T02:46:37;4.55;;;2.83;;
41946;SDS011;27638;42.184;24.848;2024-01-25T02:49:03;4.00;;;2.95;;
41946;SDS011;27638;42.184;24.848;2024-01-25T02:51:29;5.05;;;2.90;;
41946;SDS011;27638;42.184;24.848;2024-01-25T02:53:54;4.57;;;2.20;;
41946;SDS011;27638;42.184;24.848;2024-01-25T02:56:20;4.80;;;2.30;;
41946;SDS011;27638;42.184;24.848;2024-01-25T02:58:45;4.63;;;2.55;;
41946;SDS011;27638;42.184;24.848;2024-01-25T03:01:11;5.07;;;2.35;;
41946;SDS011;27638;42.184;24.848;2024-01-25T03:03:36;2.28;;;1.98;;
41946;SDS011;27638;42.184;24.848;2024-01-25T03:06:02;4.05;;;2.20;;
41946;SDS011;27638;42.184;24.848;2024-01-25T03:08:28;17.25;;;8.43;;
41946;SDS011;27638;42.184;24.848;2024-01-25T03:10:54;5.93;;;3.00;;
41946;SDS011;27638;42.184;24.848;2024-01-25T03:13:21;5.32;;;2.78;;
41946;SDS011;27638;42.184;24.848;2024-01-25T03:15:46;4.28;;;2.80;;
41946;SDS011;27638;42.184;24.848;2024-01-25T03:18:12;4.40;;;2.75;;
41946;SDS011;27638;42.184;24.848;2024-01-25T03:20:37;3.90;;;2.50;;
41946;SDS011;27638;42.184;24.848;2024-01-25T03:23:03;4.85;;;2.30;;
41946;SDS011;27638;42.184;24.848;2024-01-25T03:25:29;3.25;;;1.85;;
41946;SDS011;27638;42.184;24.848;2024-01-25T03:27:55;5.68;;;2.80;;
41946;SDS011;27638;42.184;24.848;2024-01-25T03:30:21;4.35;;;2.60;;
41946;SDS011;27638;42.184;24.848;2024-01-25T03:32:46;4.80;;;2.25;;
41946;SDS011;27638;42.184;24.848;2024-01-25T03:35:12;2.60;;;2.28;;
41946;SDS011;27638;42.184;24.848;2024-01-25T03:37:37;4.68;;;2.95;;
41946;SDS011;27638;42.184;24.848;2024-01-25T03:40:03;3.38;;;2.00;;
41946;SDS011;27638;42.184;24.848;2024-01-25T03:42:30;3.47;;;2.15;;
41946;SDS011;27638;42.184;24.848;2024-01-25T03:44:55;4.55;;;2.20;;
41946;SDS011;27638;42.184;24.848;2024-01-25T03:47:21;2.22;;;1.50;;
41946;SDS011;27638;42.184;24.848;2024-01-25T03:49:47;4.40;;;1.70;;
41946;SDS011;27638;42.184;24.848;2024-01-25T03:52:13;3.30;;;1.80;;
41946;SDS011;27638;42.184;24.848;2024-01-25T03:54:38;3.08;;;1.88;;
41946;SDS011;27638;42.184;24.848;2024-01-25T03:57:05;2.45;;;1.83;;
41946;SDS011;27638;42.184;24.848;2024-01-25T03:59:30;3.55;;;2.13;;
41946;SDS011;27638;42.184;24.848;2024-01-25T04:01:56;2.17;;;1.50;;
41946;SDS011;27638;42.184;24.848;2024-01-25T04:04:21;3.65;;;1.58;;
41946;SDS011;27638;42.184;24.848;2024-01-25T04:06:48;1.55;;;1.33;;
41946;SDS011;27638;42.184;24.848;2024-01-25T04:09:14;2.17;;;1.40;;
41946;SDS011;27638;42.184;24.848;2024-01-25T04:11:42;3.20;;;1.95;;
41946;SDS011;27638;42.184;24.848;2024-01-25T04:14:07;3.38;;;1.88;;
41946;SDS011;27638;42.184;24.848;2024-01-25T04:16:33;3.05;;;1.88;;
41946;SDS011;27638;42.184;24.848;2024-01-25T04:18:59;4.60;;;2.22;;
41946;SDS011;27638;42.184;24.848;2024-01-25T04:21:24;3.08;;;2.10;;
41946;SDS011;27638;42.184;24.848;2024-01-25T04:23:50;1.58;;;1.30;;
41946;SDS011;27638;42.184;24.848;2024-01-25T04:26:15;2.33;;;1.30;;
41946;SDS011;27638;42.184;24.848;2024-01-25T04:28:43;2.40;;;1.40;;
41946;SDS011;27638;42.184;24.848;2024-01-25T04:31:09;1.90;;;1.13;;
41946;SDS011;27638;42.184;24.848;2024-01-25T04:33:34;1.58;;;1.40;;
41946;SDS011;27638;42.184;24.848;2024-01-25T04:36:00;2.00;;;1.80;;
41946;SDS011;27638;42.184;24.848;2024-01-25T04:38:26;2.03;;;1.40;;
41946;SDS011;27638;42.184;24.848;2024-01-25T04:40:51;3.65;;;1.27;;
41946;SDS011;27638;42.184;24.848;2024-01-25T04:43:17;4.60;;;2.10;;
41946;SDS011;27638;42.184;24.848;2024-01-25T04:45:42;4.60;;;2.28;;
41946;SDS011;27638;42.184;24.848;2024-01-25T04:48:08;4.57;;;2.50;;
41946;SDS011;27638;42.184;24.848;2024-01-25T04:50:33;3.08;;;2.00;;
41946;SDS011;27638;42.184;24.848;2024-01-25T04:53:01;3.17;;;2.13;;
41946;SDS011;27638;42.184;24.848;2024-01-25T04:55:27;2.22;;;1.63;;
41946;SDS011;27638;42.184;24.848;2024-01-25T04:57:52;4.55;;;1.65;;
41946;SDS011;27638;42.184;24.848;2024-01-25T05:00:18;2.08;;;1.60;;
41946;SDS011;27638;42.184;24.848;2024-01-25T05:02:46;3.42;;;2.00;;
41946;SDS011;27638;42.184;24.848;2024-01-25T05:05:12;3.88;;;1.90;;
41946;SDS011;27638;42.184;24.848;2024-01-25T05:07:37;3.13;;;1.63;;
41946;SDS011;27638;42.184;24.848;2024-01-25T05:10:03;2.53;;;1.80;;
41946;SDS011;27638;42.184;24.848;2024-01-25T05:12:29;5.25;;;3.20;;
41946;SDS011;27638;42.184;24.848;2024-01-25T05:14:54;3.25;;;2.42;;
41946;SDS011;27638;42.184;24.848;2024-01-25T05:17:19;2.83;;;2.60;;
41946;SDS011;27638;42.184;24.848;2024-01-25T05:19:45;2.67;;;2.03;;
41946;SDS011;27638;42.184;24.848;2024-01-25T05:22:10;3.45;;;3.03;;
41946;SDS011;27638;42.184;24.848;2024-01-25T05:24:36;4.65;;;2.40;;
41946;SDS011;27638;42.184;24.848;2024-01-25T05:27:02;2.33;;;2.13;;
41946;SDS011;27638;42.184;24.848;2024-01-25T05:29:27;2.47;;;2.05;;
41946;SDS011;27638;42.184;24.848;2024-01-25T05:31:52;2.63;;;1.90;;
41946;SDS011;27638;42.184;24.848;2024-01-25T05:34:18;3.28;;;1.73;;
41946;SDS011;27638;42.184;24.848;2024-01-25T05:36:43;3.55;;;1.98;;
41946;SDS011;27638;42.184;24.848;2024-01-25T05:39:09;3.70;;;1.75;;
41946;SDS011;27638;42.184;24.848;2024-01-25T05:41:34;5.68;;;2.28;;
41946;SDS011;27638;42.184;24.848;2024-01-25T05:44:00;2.13;;;1.63;;
41946;SDS011;27638;42.184;24.848;2024-01-25T05:46:25;2.95;;;1.40;;
41946;SDS011;27638;42.184;24.848;2024-01-25T05:48:51;1.90;;;1.42;;
41946;SDS011;27638;42.184;24.848;2024-01-25T05:51:16;3.70;;;1.30;;
41946;SDS011;27638;42.184;24.848;2024-01-25T05:53:42;1.75;;;1.35;;
41946;SDS011;27638;42.184;24.848;2024-01-25T05:56:08;1.65;;;1.17;;
41946;SDS011;27638;42.184;24.848;2024-01-25T05:58:33;3.58;;;2.35;;
41946;SDS011;27638;42.184;24.848;2024-01-25T06:00:59;4.47;;;2.03;;
41946;SDS011;27638;42.184;24.848;2024-01-25T06:03:24;4.55;;;2.95;;
41946;SDS011;27638;42.184;24.848;2024-01-25T06:05:50;4.72;;;2.83;;
41946;SDS011;27638;42.184;24.848;2024-01-25T06:08:15;1.95;;;1.02;;
41946;SDS011;27638;42.184;24.848;2024-01-25T06:10:41;3.30;;;1.30;;
41946;SDS011;27638;42.184;24.848;2024-01-25T06:13:07;3.13;;;1.40;;
41946;SDS011;27638;42.184;24.848;2024-01-25T06:15:33;5.00;;;1.20;;
41946;SDS011;27638;42.184;24.848;2024-01-25T06:17:58;2.17;;;0.98;;
41946;SDS011;27638;42.184;24.848;2024-01-25T06:20:24;0.85;;;0.85;;
41946;SDS011;27638;42.184;24.848;2024-01-25T06:22:49;2.97;;;1.02;;
41946;SDS011;27638;42.184;24.848;2024-01-25T06:25:15;4.25;;;1.60;;
41946;SDS011;27638;42.184;24.848;2024-01-25T06:27:40;2.47;;;1.30;;
41946;SDS011;27638;42.184;24.848;2024-01-25T06:30:06;1.98;;;1.13;;
41946;SDS011;27638;42.184;24.848;2024-01-25T06:32:32;2.00;;;1.10;;
41946;SDS011;27638;42.184;24.848;2024-01-25T06:34:57;4.30;;;1.42;;
41946;SDS011;27638;42.184;24.848;2024-01-25T06:37:23;1.85;;;1.40;;
41946;SDS011;27638;42.184;24.848;2024-01-25T06:39:48;2.60;;;1.30;;
41946;SDS011;27638;42.184;24.848;2024-01-25T06:42:14;2.90;;;1.25;;
41946;SDS011;27638;42.184;24.848;2024-01-25T06:44:39;2.75;;;1.40;;
41946;SDS011;27638;42.184;24.848;2024-01-25T06:47:04;3.05;;;1.50;;
41946;SDS011;27638;42.184;24.848;2024-01-25T06:49:30;3.60;;;1.30;;
41946;SDS011;27638;42.184;24.848;2024-01-25T06:51:56;1.92;;;1.00;;
41946;SDS011;27638;42.184;24.848;2024-01-25T06:54:21;2.13;;;1.20;;
41946;SDS011;27638;42.184;24.848;2024-01-25T06:56:47;1.33;;;0.90;;
41946;SDS011;27638;42.184;24.848;2024-01-25T06:59:12;2.78;;;1.13;;
41946;SDS011;27638;42.184;24.848;2024-01-25T07:01:38;2.15;;;0.95;;
41946;SDS011;27638;42.184;24.848;2024-01-25T07:04:03;3.17;;;1.23;;
41946;SDS011;27638;42.184;24.848;2024-01-25T07:06:29;2.90;;;0.95;;
41946;SDS011;27638;42.184;24.848;2024-01-25T07:08:54;2.42;;;1.05;;
41946;SDS011;27638;42.184;24.848;2024-01-25T07:11:20;2.00;;;1.10;;
41946;SDS011;27638;42.184;24.848;2024-01-25T07:13:46;4.03;;;1.30;;
41946;SDS011;27638;42.184;24.848;2024-01-25T07:16:11;2.83;;;1.33;;
41946;SDS011;27638;42.184;24.848;2024-01-25T07:18:37;2.38;;;1.17;;
41946;SDS011;27638;42.184;24.848;2024-01-25T07:21:02;3.00;;;1.30;;
41946;SDS011;27638;42.184;24.848;2024-01-25T07:23:29;3.15;;;2.00;;
41946;SDS011;27638;42.184;24.848;2024-01-25T07:25:55;4.75;;;1.80;;
41946;SDS011;27638;42.184;24.848;2024-01-25T07:28:20;4.82;;;1.65;;
41946;SDS011;27638;42.184;24.848;2024-01-25T07:30:47;2.47;;;1.63;;
41946;SDS011;27638;42.184;24.848;2024-01-25T07:33:13;3.83;;;1.20;;
41946;SDS011;27638;42.184;24.848;2024-01-25T07:35:38;5.82;;;1.67;;
41946;SDS011;27638;42.184;24.848;2024-01-25T07:38:10;3.70;;;1.40;;
41946;SDS011;27638;42.184;24.848;2024-01-25T07:40:39;1.88;;;1.10;;
41946;SDS011;27638;42.184;24.848;2024-01-25T07:43:04;4.57;;;1.58;;
41946;SDS011;27638;42.184;24.848;2024-01-25T07:45:31;5.30;;;1.60;;
41946;SDS011;27638;42.184;24.848;2024-01-25T07:47:56;2.85;;;1.50;;
41946;SDS011;27638;42.184;24.848;2024-01-25T07:50:22;3.88;;;1.55;;
41946;SDS011;27638;42.184;24.848;2024-01-25T07:52:47;5.82;;;2.22;;
41946;SDS011;27638;42.184;24.848;2024-01-25T07:55:14;4.78;;;1.23;;
41946;SDS011;27638;42.184;24.848;2024-01-25T07:57:40;2.85;;;1.40;;
41946;SDS011;27638;42.184;24.848;2024-01-25T08:00:06;2.78;;;1.55;;
41946;SDS011;27638;42.184;24.848;2024-01-25T08:02:33;2.72;;;1.35;;
41946;SDS011;27638;42.184;24.848;2024-01-25T08:04:59;3.03;;;1.30;;
41946;SDS011;27638;42.184;24.848;2024-01-25T08:07:25;4.70;;;1.35;;
41946;SDS011;27638;42.184;24.848;2024-01-25T08:09:50;4.65;;;1.45;;
41946;SDS011;27638;42.184;24.848;2024-01-25T08:12:17;3.60;;;1.45;;
41946;SDS011;27638;42.184;24.848;2024-01-25T08:14:43;6.40;;;1.92;;
41946;SDS011;27638;42.184;24.848;2024-01-25T08:17:09;4.22;;;2.50;;
41946;SDS011;27638;42.184;24.848;2024-01-25T08:19:34;2.92;;;1.38;;
41946;SDS011;27638;42.184;24.848;2024-01-25T08:22:00;3.03;;;1.52;;
41946;SDS011;27638;42.184;24.848;2024-01-25T08:24:25;2.05;;;1.25;;
41946;SDS011;27638;42.184;24.848;2024-01-25T08:26:51;3.35;;;1.70;;
41946;SDS011;27638;42.184;24.848;2024-01-25T08:29:16;7.57;;;2.85;;
41946;SDS011;27638;42.184;24.848;2024-01-25T08:31:42;3.08;;;1.42;;
41946;SDS011;27638;42.184;24.848;2024-01-25T08:34:07;1.50;;;1.35;;
41946;SDS011;27638;42.184;24.848;2024-01-25T08:36:32;4.47;;;1.55;;
41946;SDS011;27638;42.184;24.848;2024-01-25T08:38:58;3.30;;;1.60;;
41946;SDS011;27638;42.184;24.848;2024-01-25T08:41:23;3.92;;;1.00;;
41946;SDS011;27638;42.184;24.848;2024-01-25T08:43:49;3.38;;;1.60;;
41946;SDS011;27638;42.184;24.848;2024-01-25T08:46:15;3.17;;;1.42;;
41946;SDS011;27638;42.184;24.848;2024-01-25T08:48:41;3.25;;;1.30;;
41946;SDS011;27638;42.184;24.848;2024-01-25T08:51:06;4.40;;;1.60;;
41946;SDS011;27638;42.184;24.848;2024-01-25T08:53:33;4.32;;;2.00;;
41946;SDS011;27638;42.184;24.848;2024-01-25T08:55:59;6.40;;;1.80;;
41946;SDS011;27638;42.184;24.848;2024-01-25T08:58:25;4.72;;;1.90;;
41946;SDS011;27638;42.184;24.848;2024-01-25T09:00:50;3.40;;;1.50;;
41946;SDS011;27638;42.184;24.848;2024-01-25T09:03:16;5.70;;;1.40;;
41946;SDS011;27638;42.184;24.848;2024-01-25T09:05:41;5.00;;;1.73;;
41946;SDS011;27638;42.184;24.848;2024-01-25T09:08:11;4.78;;;1.50;;
41946;SDS011;27638;42.184;24.848;2024-01-25T09:10:37;3.10;;;1.42;;
41946;SDS011;27638;42.184;24.848;2024-01-25T09:13:03;2.45;;;1.50;;
41946;SDS011;27638;42.184;24.848;2024-01-25T09:15:29;5.03;;;1.50;;
41946;SDS011;27638;42.184;24.848;2024-01-25T09:17:54;1.90;;;1.35;;
41946;SDS011;27638;42.184;24.848;2024-01-25T09:20:20;4.82;;;1.65;;
41946;SDS011;27638;42.184;24.848;2024-01-25T09:22:45;3.38;;;1.80;;
41946;SDS011;27638;42.184;24.848;2024-01-25T09:25:11;2.67;;;1.42;;
41946;SDS011;27638;42.184;24.848;2024-01-25T09:27:36;4.13;;;1.42;;
41946;SDS011;27638;42.184;24.848;2024-01-25T09:30:03;4.32;;;1.83;;
41946;SDS011;27638;42.184;24.848;2024-01-25T09:32:30;3.08;;;1.40;;
41946;SDS011;27638;42.184;24.848;2024-01-25T09:34:55;5.07;;;1.67;;
41946;SDS011;27638;42.184;24.848;2024-01-25T09:37:21;7.28;;;2.03;;
41946;SDS011;27638;42.184;24.848;2024-01-25T09:39:48;5.05;;;1.58;;
41946;SDS011;27638;42.184;24.848;2024-01-25T09:42:14;4.90;;;2.10;;
41946;SDS011;27638;42.184;24.848;2024-01-25T09:44:39;4.65;;;2.20;;
41946;SDS011;27638;42.184;24.848;2024-01-25T09:47:06;8.35;;;1.77;;
41946;SDS011;27638;42.184;24.848;2024-01-25T09:49:34;2.60;;;1.20;;
41946;SDS011;27638;42.184;24.848;2024-01-25T09:52:01;5.45;;;1.88;;
41946;SDS011;27638;42.184;24.848;2024-01-25T09:54:30;4.45;;;1.60;;
41946;SDS011;27638;42.184;24.848;2024-01-25T09:57:00;3.35;;;2.25;;
41946;SDS011;27638;42.184;24.848;2024-01-25T09:59:28;5.32;;;2.20;;
41946;SDS011;27638;42.184;24.848;2024-01-25T10:01:54;3.33;;;1.63;;
41946;SDS011;27638;42.184;24.848;2024-01-25T10:04:20;5.68;;;2.40;;
41946;SDS011;27638;42.184;24.848;2024-01-25T10:06:48;4.50;;;2.05;;
41946;SDS011;27638;42.184;24.848;2024-01-25T10:09:14;5.38;;;1.73;;
41946;SDS011;27638;42.184;24.848;2024-01-25T10:11:39;6.45;;;1.60;;
41946;SDS011;27638;42.184;24.848;2024-01-25T10:14:04;5.40;;;2.55;;
41946;SDS011;27638;42.184;24.848;2024-01-25T10:16:31;4.03;;;1.90;;
41946;SDS011;27638;42.184;24.848;2024-01-25T10:18:57;4.97;;;1.90;;
41946;SDS011;27638;42.184;24.848;2024-01-25T10:21:22;5.85;;;1.85;;
41946;SDS011;27638;42.184;24.848;2024-01-25T10:23:48;5.25;;;1.83;;
41946;SDS011;27638;42.184;24.848;2024-01-25T10:26:15;4.28;;;1.67;;
41946;SDS011;27638;42.184;24.848;2024-01-25T10:28:41;5.40;;;1.80;;
41946;SDS011;27638;42.184;24.848;2024-01-25T10:31:07;6.60;;;3.13;;
41946;SDS011;27638;42.184;24.848;2024-01-25T10:33:33;5.95;;;1.95;;
41946;SDS011;27638;42.184;24.848;2024-01-25T10:36:00;8.02;;;1.70;;
41946;SDS011;27638;42.184;24.848;2024-01-25T10:38:38;4.03;;;1.90;;
41946;SDS011;27638;42.184;24.848;2024-01-25T10:41:04;3.55;;;2.17;;
41946;SDS011;27638;42.184;24.848;2024-01-25T10:43:31;5.38;;;2.10;;
41946;SDS011;27638;42.184;24.848;2024-01-25T10:45:57;3.47;;;1.60;;
41946;SDS011;27638;42.184;24.848;2024-01-25T10:48:27;6.22;;;2.78;;
41946;SDS011;27638;42.184;24.848;2024-01-25T10:50:54;3.13;;;1.80;;
41946;SDS011;27638;42.184;24.848;2024-01-25T10:53:23;3.10;;;1.73;;
41946;SDS011;27638;42.184;24.848;2024-01-25T10:55:50;4.82;;;1.60;;
41946;SDS011;27638;42.184;24.848;2024-01-25T10:58:16;3.50;;;1.77;;
41946;SDS011;27638;42.184;24.848;2024-01-25T11:00:48;5.22;;;1.75;;
41946;SDS011;27638;42.184;24.848;2024-01-25T11:03:17;6.15;;;2.30;;
41946;SDS011;27638;42.184;24.848;2024-01-25T11:05:44;2.78;;;1.52;;
41946;SDS011;27638;42.184;24.848;2024-01-25T11:08:18;4.55;;;1.95;;
41946;SDS011;27638;42.184;24.848;2024-01-25T11:10:47;4.88;;;2.20;;
41946;SDS011;27638;42.184;24.848;2024-01-25T11:13:15;5.05;;;1.90;;
41946;SDS011;27638;42.184;24.848;2024-01-25T11:15:41;3.95;;;1.88;;
41946;SDS011;27638;42.184;24.848;2024-01-25T11:18:07;8.00;;;1.55;;
41946;SDS011;27638;42.184;24.848;2024-01-25T11:20:34;4.32;;;1.95;;
41946;SDS011;27638;42.184;24.848;2024-01-25T11:23:04;2.85;;;1.73;;
41946;SDS011;27638;42.184;24.848;2024-01-25T11:25:32;2.55;;;1.80;;
41946;SDS011;27638;42.184;24.848;2024-01-25T11:28:00;5.05;;;1.98;;
41946;SDS011;27638;42.184;24.848;2024-01-25T11:30:28;5.90;;;2.45;;
41946;SDS011;27638;42.184;24.848;2024-01-25T11:32:55;3.42;;;1.85;;
41946;SDS011;27638;42.184;24.848;2024-01-25T11:35:21;3.10;;;1.50;;
41946;SDS011;27638;42.184;24.848;2024-01-25T11:37:47;5.25;;;2.10;;
41946;SDS011;27638;42.184;24.848;2024-01-25T11:40:14;4.80;;;1.73;;
41946;SDS011;27638;42.184;24.848;2024-01-25T11:42:43;5.40;;;2.70;;
41946;SDS011;27638;42.184;24.848;2024-01-25T11:45:10;2.42;;;1.70;;
41946;SDS011;27638;42.184;24.848;2024-01-25T11:47:37;3.80;;;1.65;;
41946;SDS011;27638;42.184;24.848;2024-01-25T11:50:04;4.93;;;2.40;;
41946;SDS011;27638;42.184;24.848;2024-01-25T11:52:32;5.85;;;2.63;;
41946;SDS011;27638;42.184;24.848;2024-01-25T11:55:02;7.22;;;2.13;;
41946;SDS011;27638;42.184;24.848;2024-01-25T11:57:29;4.63;;;2.17;;
41946;SDS011;27638;42.184;24.848;2024-01-25T11:59:57;4.88;;;2.30;;
41946;SDS011;27638;42.184;24.848;2024-01-25T12:02:23;6.53;;;2.03;;
41946;SDS011;27638;42.184;24.848;2024-01-25T12:04:49;4.00;;;2.42;;
41946;SDS011;27638;42.184;24.848;2024-01-25T12:07:15;6.93;;;2.00;;
41946;SDS011;27638;42.184;24.848;2024-01-25T12:09:41;7.45;;;2.38;;
41946;SDS011;27638;42.184;24.848;2024-01-25T12:12:06;6.18;;;2.00;;
41946;SDS011;27638;42.184;24.848;2024-01-25T12:14:34;6.18;;;2.15;;
41946;SDS011;27638;42.184;24.848;2024-01-25T12:17:00;4.97;;;2.20;;
41946;SDS011;27638;42.184;24.848;2024-01-25T12:19:27;6.38;;;2.95;;
41946;SDS011;27638;42.184;24.848;2024-01-25T12:21:55;6.28;;;2.47;;
41946;SDS011;27638;42.184;24.848;2024-01-25T12:24:21;5.40;;;3.00;;
41946;SDS011;27638;42.184;24.848;2024-01-25T12:26:46;5.70;;;3.75;;
41946;SDS011;27638;42.184;24.848;2024-01-25T12:29:12;7.78;;;4.00;;
41946;SDS011;27638;42.184;24.848;2024-01-25T12:31:38;7.50;;;3.53;;
41946;SDS011;27638;42.184;24.848;2024-01-25T12:34:03;5.60;;;3.17;;
41946;SDS011;27638;42.184;24.848;2024-01-25T12:36:39;6.85;;;3.97;;
41946;SDS011;27638;42.184;24.848;2024-01-25T12:39:05;5.93;;;3.28;;
41946;SDS011;27638;42.184;24.848;2024-01-25T12:41:30;4.20;;;2.40;;
41946;SDS011;27638;42.184;24.848;2024-01-25T12:43:56;3.47;;;2.20;;
41946;SDS011;27638;42.184;24.848;2024-01-25T12:46:22;5.35;;;2.95;;
41946;SDS011;27638;42.184;24.848;2024-01-25T12:48:47;8.02;;;2.83;;
41946;SDS011;27638;42.184;24.848;2024-01-25T12:51:13;3.67;;;2.20;;
41946;SDS011;27638;42.184;24.848;2024-01-25T12:53:38;5.05;;;2.30;;
41946;SDS011;27638;42.184;24.848;2024-01-25T12:56:04;6.80;;;2.50;;
41946;SDS011;27638;42.184;24.848;2024-01-25T12:58:29;6.30;;;2.85;;
41946;SDS011;27638;42.184;24.848;2024-01-25T13:00:55;7.65;;;2.70;;
41946;SDS011;27638;42.184;24.848;2024-01-25T13:03:20;3.33;;;1.77;;
41946;SDS011;27638;42.184;24.848;2024-01-25T13:05:46;2.78;;;1.73;;
41946;SDS011;27638;42.184;24.848;2024-01-25T13:08:11;6.90;;;1.95;;
41946;SDS011;27638;42.184;24.848;2024-01-25T13:10:37;6.25;;;1.90;;
41946;SDS011;27638;42.184;24.848;2024-01-25T13:13:02;6.78;;;2.65;;
41946;SDS011;27638;42.184;24.848;2024-01-25T13:15:28;4.80;;;1.80;;
41946;SDS011;27638;42.184;24.848;2024-01-25T13:17:54;6.18;;;2.00;;
41946;SDS011;27638;42.184;24.848;2024-01-25T13:20:19;4.72;;;1.80;;
41946;SDS011;27638;42.184;24.848;2024-01-25T13:22:45;3.15;;;1.65;;
41946;SDS011;27638;42.184;24.848;2024-01-25T13:25:10;5.13;;;2.13;;
41946;SDS011;27638;42.184;24.848;2024-01-25T13:27:37;3.17;;;1.90;;
41946;SDS011;27638;42.184;24.848;2024-01-25T13:30:03;5.75;;;2.47;;
41946;SDS011;27638;42.184;24.848;2024-01-25T13:32:30;4.70;;;2.20;;
41946;SDS011;27638;42.184;24.848;2024-01-25T13:34:55;2.90;;;1.73;;
41946;SDS011;27638;42.184;24.848;2024-01-25T13:37:21;5.97;;;2.28;;
41946;SDS011;27638;42.184;24.848;2024-01-25T13:39:47;5.78;;;2.53;;
41946;SDS011;27638;42.184;24.848;2024-01-25T13:42:13;5.07;;;2.45;;
41946;SDS011;27638;42.184;24.848;2024-01-25T13:44:38;6.85;;;2.58;;
41946;SDS011;27638;42.184;24.848;2024-01-25T13:47:04;8.70;;;2.03;;
41946;SDS011;27638;42.184;24.848;2024-01-25T13:49:29;5.22;;;2.38;;
41946;SDS011;27638;42.184;24.848;2024-01-25T13:51:55;4.80;;;2.15;;
41946;SDS011;27638;42.184;24.848;2024-01-25T13:54:20;3.95;;;2.17;;
41946;SDS011;27638;42.184;24.848;2024-01-25T13:56:46;4.78;;;2.15;;
41946;SDS011;27638;42.184;24.848;2024-01-25T13:59:11;5.85;;;2.15;;
41946;SDS011;27638;42.184;24.848;2024-01-25T14:01:37;6.13;;;2.55;;
41946;SDS011;27638;42.184;24.848;2024-01-25T14:04:03;8.38;;;2.35;;
41946;SDS011;27638;42.184;24.848;2024-01-25T14:06:29;7.68;;;2.30;;
41946;SDS011;27638;42.184;24.848;2024-01-25T14:08:54;7.78;;;2.65;;
41946;SDS011;27638;42.184;24.848;2024-01-25T14:11:19;4.43;;;2.00;;
41946;SDS011;27638;42.184;24.848;2024-01-25T14:13:45;6.72;;;2.30;;
41946;SDS011;27638;42.184;24.848;2024-01-25T14:16:10;8.38;;;2.72;;
41946;SDS011;27638;42.184;24.848;2024-01-25T14:18:41;6.05;;;2.20;;
41946;SDS011;27638;42.184;24.848;2024-01-25T14:21:07;5.63;;;2.25;;
41946;SDS011;27638;42.184;24.848;2024-01-25T14:23:33;5.53;;;2.08;;